Ocoee 2 Observed Data For Previous 48 Hours

Note: Discharge information is a combination of river flows at the Ocoee No. 2 dam and the volume of water diverted by the Ocoee Flume, which bypasses the middle section of the river where recreational rafting is held.

Caption
Day and Hour Reservoir Elevation (behind dam)* Tailwater Elevation (below dam)* Average Hourly Discharge*
12/11/2018 2 AM EST 843.12 2,211
12/11/2018 3 AM EST 843.10 2,203
12/11/2018 4 AM EST 843.13 2,197
12/11/2018 5 AM EST 843.16 2,262
12/11/2018 6 AM EST 843.13 2,228
12/11/2018 7 AM EST 843.13 2,231
12/11/2018 8 AM EST 843.12 2,227
12/11/2018 9 AM EST 843.14 2,219
12/11/2018 10 AM EST 843.13 2,207
12/11/2018 11 AM EST 843.13 2,219
12/11/2018 12 PM EST 843.13 2,226
12/11/2018 1 PM EST 843.13 2,216
12/11/2018 2 PM EST 843.14 2,243
12/11/2018 3 PM EST 843.13 2,236
12/11/2018 4 PM EST 843.37 2,582
12/11/2018 5 PM EST 843.41 2,628
12/11/2018 6 PM EST 843.41 2,642
12/11/2018 7 PM EST 843.43 2,662
12/11/2018 8 PM EST 843.41 2,629
12/11/2018 9 PM EST 843.40 2,641
12/11/2018 10 PM EST 843.39 2,605
12/11/2018 11 PM EST 843.41 2,646
12/12/2018 12 AM EST 843.43 2,666
12/12/2018 1 AM EST 843.40 2,625
12/12/2018 2 AM EST 843.41 2,652
12/12/2018 3 AM EST 843.40 2,643
12/12/2018 4 AM EST 843.45 2,694
12/12/2018 5 AM EST 843.40 2,616
12/12/2018 6 AM EST 843.40 2,597
12/12/2018 7 AM EST 843.39 2,611
12/12/2018 8 AM EST 843.40 2,631
12/12/2018 9 AM EST 843.40 2,604
12/12/2018 10 AM EST 843.40 2,619
12/12/2018 11 AM EST 843.39 2,627
12/12/2018 12 PM EST 843.40 2,626
12/12/2018 1 PM EST 843.41 2,626
12/12/2018 2 PM EST 843.40 2,589
12/12/2018 3 PM EST 843.39 2,601
12/12/2018 4 PM EST 843.40 2,579
12/12/2018 5 PM EST 843.38 2,594
12/12/2018 6 PM EST 843.38 2,592
12/12/2018 7 PM EST 843.38 2,598
12/12/2018 8 PM EST 843.39 2,610
12/12/2018 9 PM EST 843.38 2,596
12/12/2018 10 PM EST 843.40 2,618
12/12/2018 11 PM EST 843.41 2,618
12/13/2018 12 AM EST 843.40 2,587
12/13/2018 1 AM EST 843.40 2,605
12/13/2018 2 AM EST 843.39 2,607
12/13/2018 3 AM EST 843.39 2,591
12/13/2018 4 AM EST 843.38 2,617
12/13/2018 5 AM EST 843.38 2,607
12/13/2018 6 AM EST 843.38 2,601
12/13/2018 7 AM EST 843.40 2,610
12/13/2018 8 AM EST 843.40 2,604
12/13/2018 9 AM EST 843.39 2,594

Elevations are in feet above sea level. Discharges are in cubic feet per second and are reported at the end of the hour.